Sunset Colony, South Dakota
Current Conditions -  °F | °C
As of 7:55 AM on Saturday 25 Oct 2014 (Local Time) from KGWR Reporting Station
Scattered Clouds Scattered Clouds  
Wind Chill:   Ceiling: Unl
Heat Index:   Visibility: 10mi
Dew Point:   Wind: 10mph
Humidity: 54%   Direction: 300°WNW
Pressure: 30.11"   Gusts: 16mph
Location:  45.8144°N, 97.7089°W
Report Text: KGWR 251255Z AUTO 30009G14KT 10SM SCT120 09/00 A3011 RMK A01 P000
Loading
Personal Weather Stations






























Interactive Weather Map
Tropical Storm Tracking
New forecast layout! Learn more

10-Day Weather Forecast

Advertisements
Track Severe Weather on mobile